createdAt,value
2022-11-04T00:00:09.851Z,100111.94
2022-11-04T00:02:37.170Z,100100.94
2022-11-04T00:05:04.778Z,100115.50
2022-11-04T00:07:50.739Z,100121.47
2022-11-04T00:10:37.946Z,100118.13
2022-11-04T00:13:05.534Z,100130.72
2022-11-04T00:15:55.794Z,100130.53
2022-11-04T00:18:23.196Z,100121.69
2022-11-04T00:21:09.266Z,100126.06
2022-11-04T00:23:55.337Z,100117.13
2022-11-04T00:26:41.328Z,100106.97
2022-11-04T00:29:08.734Z,100107.88
2022-11-04T00:31:54.477Z,100070.91
2022-11-04T00:34:21.778Z,100088.31
2022-11-04T00:36:49.010Z,100105.56
2022-11-04T00:39:16.293Z,100072.81
2022-11-04T00:41:43.589Z,100098.81
2022-11-04T00:44:10.864Z,100105.00
2022-11-04T00:46:38.037Z,100080.91
2022-11-04T00:49:05.485Z,100077.09
2022-11-04T00:51:32.720Z,100080.44
2022-11-04T00:54:00.057Z,100068.25
2022-11-04T00:56:27.814Z,100061.47
2022-11-04T00:58:55.245Z,100067.47
2022-11-04T01:01:22.713Z,100041.94
2022-11-04T01:03:52.837Z,100058.75
2022-11-04T01:06:21.891Z,100025.25
2022-11-04T01:08:49.545Z,100042.22
2022-11-04T01:11:17.066Z,100006.38
2022-11-04T01:13:44.318Z,100021.91
2022-11-04T01:16:13.255Z,100034.16
2022-11-04T01:18:41.373Z,100034.22
2022-11-04T01:21:13.269Z,99994.81
2022-11-04T01:23:42.485Z,100013.72
2022-11-04T01:26:13.890Z,99980.66
2022-11-04T01:28:41.318Z,99972.25
2022-11-04T01:31:14.397Z,100006.75
2022-11-04T01:33:42.097Z,99978.50
2022-11-04T01:36:10.773Z,99987.84
2022-11-04T01:38:38.171Z,99971.19
2022-11-04T01:41:06.826Z,99986.03
2022-11-04T01:43:44.933Z,99999.19
2022-11-04T01:46:46.596Z,99992.72
2022-11-04T01:49:16.737Z,99989.41
2022-11-04T01:51:46.208Z,99956.94
2022-11-04T01:54:14.151Z,99960.75
2022-11-04T01:56:44.295Z,99967.88
2022-11-04T01:59:21.059Z,99980.03
2022-11-04T02:01:48.587Z,99941.22
2022-11-04T02:04:26.067Z,99971.97
2022-11-04T02:07:08.123Z,99943.38
2022-11-04T02:09:37.601Z,99932.41
2022-11-04T02:12:23.724Z,99958.53
2022-11-04T02:14:52.813Z,99942.56
2022-11-04T02:17:19.952Z,99952.03
2022-11-04T02:20:05.804Z,99945.22
2022-11-04T02:23:10.991Z,99947.06
2022-11-04T02:25:57.478Z,99948.00
2022-11-04T02:28:34.235Z,99944.81
2022-11-04T02:31:19.569Z,99949.25
2022-11-04T02:34:00.976Z,99938.16
2022-11-04T02:36:42.707Z,99918.56
2022-11-04T02:39:28.490Z,99948.13
2022-11-04T02:42:04.551Z,99947.31
2022-11-04T02:44:38.171Z,99906.22
2022-11-04T02:47:09.946Z,99914.00
2022-11-04T02:49:58.558Z,99942.53
2022-11-04T02:52:31.730Z,99929.91
2022-11-04T02:55:27.874Z,99935.13
2022-11-04T02:57:59.283Z,99933.44
2022-11-04T03:00:28.601Z,99918.13
2022-11-04T03:03:04.136Z,99917.31
2022-11-04T03:05:38.932Z,99896.72
2022-11-04T03:08:18.380Z,99910.59
2022-11-04T03:10:52.573Z,99886.63
2022-11-04T03:13:34.256Z,99910.09
2022-11-04T03:16:09.226Z,99909.38
2022-11-04T03:18:46.526Z,99906.56
2022-11-04T03:21:16.758Z,99872.19
2022-11-04T03:23:44.034Z,99887.22
2022-11-04T03:26:21.799Z,99903.19
2022-11-04T03:29:07.281Z,99905.16
2022-11-04T03:32:10.049Z,99901.56
2022-11-04T03:34:38.064Z,99883.88
2022-11-04T03:37:05.638Z,99876.34
2022-11-04T03:39:33.505Z,99870.78
2022-11-04T03:42:20.055Z,99882.75
2022-11-04T03:44:56.258Z,99898.59
2022-11-04T03:47:26.520Z,99858.44
2022-11-04T03:50:17.732Z,99886.13
2022-11-04T03:52:45.003Z,99883.28
2022-11-04T03:55:13.012Z,99896.13
2022-11-04T03:57:46.333Z,99881.53
2022-11-04T04:00:17.014Z,99899.59
2022-11-04T04:03:08.902Z,99900.56
2022-11-04T04:05:46.768Z,99884.91
2022-11-04T04:08:33.903Z,99860.63
2022-11-04T04:11:44.445Z,99827.91
2022-11-04T04:14:41.495Z,99863.13
2022-11-04T04:17:37.581Z,99866.75
2022-11-04T04:20:27.076Z,99874.53
2022-11-04T04:23:29.740Z,99886.25
2022-11-04T04:26:20.151Z,99893.56
2022-11-04T04:28:48.438Z,99862.13
2022-11-04T04:31:39.963Z,99861.81
2022-11-04T04:34:07.953Z,99857.44
2022-11-04T04:36:45.564Z,99870.75
2022-11-04T04:39:35.610Z,99856.78
2022-11-04T04:42:22.491Z,99841.28
2022-11-04T04:45:04.753Z,99874.06
2022-11-04T04:47:45.030Z,99868.28
2022-11-04T04:50:15.799Z,99872.84
2022-11-04T04:52:52.974Z,99874.31
2022-11-04T04:55:21.271Z,99870.91
2022-11-04T04:57:48.617Z,99821.13
2022-11-04T05:00:18.967Z,99844.66
2022-11-04T05:02:46.389Z,99866.22
2022-11-04T05:07:46.799Z,99844.59
2022-11-04T05:10:16.112Z,99851.16
2022-11-04T05:13:01.984Z,99830.50
2022-11-04T05:15:31.233Z,99863.47
2022-11-04T05:18:00.588Z,99832.81
2022-11-04T05:20:30.362Z,99837.03
2022-11-04T05:22:57.679Z,99815.16
2022-11-04T05:25:25.001Z,99797.81
2022-11-04T05:27:52.324Z,99816.06
2022-11-04T05:30:19.651Z,99799.06
2022-11-04T05:32:46.837Z,99829.88
2022-11-04T05:35:14.218Z,99805.41
2022-11-04T05:37:41.525Z,99816.47
2022-11-04T05:40:09.359Z,99816.56
2022-11-04T05:42:36.965Z,99811.50
2022-11-04T05:45:05.169Z,99833.81
2022-11-04T05:47:32.386Z,99827.78
2022-11-04T05:49:59.724Z,99815.66
2022-11-04T05:52:26.989Z,99839.47
2022-11-04T05:54:54.232Z,99829.25
2022-11-04T05:57:21.575Z,99840.38
2022-11-04T05:59:48.965Z,99847.06
2022-11-04T06:02:16.314Z,99830.63
2022-11-04T06:04:43.638Z,99863.09
2022-11-04T06:07:11.988Z,99840.56
2022-11-04T06:09:39.351Z,99807.75
2022-11-04T06:12:12.166Z,99852.03
2022-11-04T06:14:39.509Z,99834.75
2022-11-04T06:17:06.756Z,99824.06
2022-11-04T06:19:34.076Z,99827.72
2022-11-04T06:22:01.312Z,99814.66
2022-11-04T06:24:28.579Z,99843.09
2022-11-04T06:26:56.109Z,99837.00
2022-11-04T06:29:23.509Z,99829.13
2022-11-04T06:31:51.191Z,99802.16
2022-11-04T06:34:18.698Z,99823.31
2022-11-04T06:36:45.957Z,99814.56
2022-11-04T06:39:13.167Z,99833.31
2022-11-04T06:41:42.956Z,99820.19
2022-11-04T06:44:10.640Z,99827.84
2022-11-04T06:46:39.010Z,99814.22
2022-11-04T06:49:09.752Z,99816.66
2022-11-04T06:51:37.182Z,99835.50
2022-11-04T06:54:04.730Z,99854.84
2022-11-04T06:56:31.992Z,99846.84
2022-11-04T06:58:59.283Z,99820.75
2022-11-04T07:01:30.800Z,99850.53
2022-11-04T07:04:00.266Z,99853.72
2022-11-04T07:06:29.258Z,99848.78
2022-11-04T07:08:58.989Z,99850.94
2022-11-04T07:11:28.157Z,99851.75
2022-11-04T07:13:55.499Z,99836.34
2022-11-04T07:16:22.894Z,99841.47
2022-11-04T07:18:51.861Z,99805.66
2022-11-04T07:21:19.221Z,99806.09
2022-11-04T07:23:46.527Z,99828.09
2022-11-04T07:26:14.101Z,99805.69
2022-11-04T07:28:41.360Z,99804.94
2022-11-04T07:31:12.326Z,99822.69
2022-11-04T07:33:39.797Z,99812.09
2022-11-04T07:36:11.582Z,99834.41
2022-11-04T07:38:38.925Z,99808.78
2022-11-04T07:41:06.378Z,99828.78
2022-11-04T07:43:33.967Z,99820.44
2022-11-04T07:46:06.175Z,99817.69
2022-11-04T07:48:33.670Z,99776.41
2022-11-04T07:51:01.644Z,99774.28
2022-11-04T07:53:33.087Z,99778.88
2022-11-04T07:56:07.177Z,99769.47
2022-11-04T07:58:35.007Z,99753.47
2022-11-04T08:01:07.751Z,99770.66
2022-11-04T08:03:36.854Z,99758.94
2022-11-04T08:06:06.043Z,99749.03
2022-11-04T08:08:34.347Z,99745.09
2022-11-04T08:11:16.817Z,99744.63
2022-11-04T08:13:45.589Z,99748.81
2022-11-04T08:16:19.192Z,99732.16
2022-11-04T08:18:48.570Z,99748.00
2022-11-04T08:21:16.505Z,99743.09
2022-11-04T08:23:44.516Z,99720.34
2022-11-04T08:26:16.418Z,99726.91
2022-11-04T08:28:43.678Z,99710.19
2022-11-04T08:31:18.199Z,99712.06
2022-11-04T08:33:45.670Z,99705.81
2022-11-04T08:36:19.386Z,99715.41
2022-11-04T08:38:46.853Z,99709.44
2022-11-04T08:41:16.586Z,99703.78
2022-11-04T08:43:43.911Z,99709.75
2022-11-04T08:46:11.500Z,99701.09
2022-11-04T08:48:39.772Z,99688.44
2022-11-04T08:51:15.892Z,99682.72
2022-11-04T08:53:43.673Z,99694.47
2022-11-04T08:56:18.032Z,99684.06
2022-11-04T08:58:45.637Z,99637.47
2022-11-04T09:01:12.890Z,99661.28
2022-11-04T09:03:41.450Z,99671.13
2022-11-04T09:06:12.252Z,99655.63
2022-11-04T09:08:39.817Z,99669.22
2022-11-04T09:11:10.084Z,99659.03
2022-11-04T09:13:39.865Z,99646.97
2022-11-04T09:16:09.416Z,99660.44
2022-11-04T09:18:36.866Z,99656.38
2022-11-04T09:21:05.981Z,99664.38
2022-11-04T09:23:33.618Z,99644.19
2022-11-04T09:26:10.076Z,99658.41
2022-11-04T09:28:37.378Z,99648.59
2022-11-04T09:31:12.115Z,99656.88
2022-11-04T09:33:39.909Z,99638.63
2022-11-04T09:36:08.945Z,99604.44
2022-11-04T09:38:40.484Z,99633.41
2022-11-04T09:41:42.169Z,99635.75
2022-11-04T09:44:29.127Z,99634.34
2022-11-04T09:47:03.002Z,99630.84
2022-11-04T09:49:35.857Z,99625.22
2022-11-04T09:52:13.399Z,99627.75
2022-11-04T09:54:53.127Z,99603.34
2022-11-04T09:57:20.565Z,99618.56
2022-11-04T09:59:48.533Z,99617.22
2022-11-04T10:02:28.101Z,99562.31
2022-11-04T10:05:27.658Z,99619.13
2022-11-04T10:08:12.877Z,99618.44
2022-11-04T10:11:05.238Z,99604.22
2022-11-04T10:14:10.707Z,99609.03
2022-11-04T10:16:49.817Z,99600.69
2022-11-04T10:19:27.491Z,99591.97
2022-11-04T10:22:11.738Z,99575.28
2022-11-04T10:24:43.498Z,99579.00
2022-11-04T10:27:17.614Z,99561.97
2022-11-04T10:29:52.806Z,99570.13
2022-11-04T10:32:35.719Z,99562.28
2022-11-04T10:35:34.780Z,99571.56
2022-11-04T10:38:17.614Z,99557.06
2022-11-04T10:40:48.691Z,99575.81
2022-11-04T10:43:28.567Z,99567.25
2022-11-04T10:46:08.147Z,99564.06
2022-11-04T10:48:54.972Z,99560.88
2022-11-04T10:51:23.902Z,99545.19
2022-11-04T10:53:56.658Z,99538.06
2022-11-04T10:56:50.324Z,99550.31
2022-11-04T10:59:31.742Z,99546.19
2022-11-04T11:02:02.131Z,99506.47
2022-11-04T11:04:32.401Z,99538.25
2022-11-04T11:07:02.020Z,99522.50
2022-11-04T11:09:32.730Z,99521.06
2022-11-04T11:12:01.656Z,99529.09
2022-11-04T11:14:28.808Z,99527.59
2022-11-04T11:16:57.773Z,99522.53
2022-11-04T11:19:26.012Z,99495.31
2022-11-04T11:21:56.035Z,99525.94
2022-11-04T11:24:25.056Z,99510.88
2022-11-04T11:26:57.280Z,99499.94
2022-11-04T11:29:42.311Z,99480.94
2022-11-04T11:32:37.018Z,99495.34
2022-11-04T11:35:10.756Z,99480.78
2022-11-04T11:37:43.258Z,99476.31
2022-11-04T11:40:32.097Z,99481.38
2022-11-04T11:43:01.243Z,99474.91
2022-11-04T11:45:30.125Z,99478.03
2022-11-04T11:47:57.614Z,99451.78
2022-11-04T11:50:31.309Z,99488.56
2022-11-04T11:53:14.805Z,99473.13
2022-11-04T11:55:48.550Z,99461.53
2022-11-04T12:01:35.653Z,99463.72
2022-11-04T12:10:51.995Z,99444.72
2022-11-04T12:13:29.227Z,99434.00
2022-11-04T12:16:27.524Z,99439.44
2022-11-04T12:19:26.408Z,99417.53
2022-11-04T12:22:13.961Z,99419.25
2022-11-04T12:24:53.360Z,99404.00
2022-11-04T12:27:38.326Z,99412.09
2022-11-04T12:30:06.647Z,99420.13
2022-11-04T12:32:58.453Z,99424.22
2022-11-04T12:35:53.616Z,99430.34
2022-11-04T12:39:02.422Z,99422.50
2022-11-04T12:42:06.458Z,99422.75
2022-11-04T12:44:34.790Z,99417.41
2022-11-04T12:47:20.826Z,99419.47
2022-11-04T12:50:09.195Z,99413.09
2022-11-04T12:53:12.296Z,99411.31
2022-11-04T12:55:54.890Z,99397.41
2022-11-04T12:58:44.881Z,99362.97
2022-11-04T13:01:55.748Z,99386.56
2022-11-04T13:04:39.142Z,99387.06
2022-11-04T13:07:41.403Z,99378.56
2022-11-04T13:10:21.385Z,99377.53
2022-11-04T13:12:51.901Z,99360.44
2022-11-04T13:15:28.910Z,99376.16
2022-11-04T13:18:01.531Z,99376.03
2022-11-04T13:20:40.526Z,99379.94
2022-11-04T13:23:18.832Z,99350.94
2022-11-04T13:25:48.233Z,99345.88
2022-11-04T13:28:19.616Z,99365.81
2022-11-04T13:31:25.825Z,99366.66
2022-11-04T13:34:05.915Z,99357.22
2022-11-04T13:36:40.436Z,99349.47
2022-11-04T13:39:18.430Z,99352.44
2022-11-04T13:41:58.086Z,99376.84
2022-11-04T13:44:30.214Z,99366.09
2022-11-04T13:47:04.170Z,99369.13
2022-11-04T13:49:37.110Z,99372.91
2022-11-04T13:52:08.970Z,99368.06
2022-11-04T13:54:43.104Z,99369.91
2022-11-04T13:57:17.993Z,99373.28
2022-11-04T14:00:09.481Z,99374.13
2022-11-04T14:02:44.029Z,99371.22
2022-11-04T14:05:29.873Z,99369.91
2022-11-04T14:08:03.053Z,99374.16
2022-11-04T14:10:59.248Z,99378.47
2022-11-04T14:13:26.391Z,99374.59
2022-11-04T14:16:11.433Z,99364.69
2022-11-04T14:18:47.060Z,99367.34
2022-11-04T14:21:15.955Z,99366.25
2022-11-04T14:23:47.453Z,99323.59
2022-11-04T14:26:20.908Z,99365.19
2022-11-04T14:29:00.606Z,99347.22
2022-11-04T14:31:46.311Z,99360.94
2022-11-04T14:34:34.551Z,99353.81
2022-11-04T14:37:07.901Z,99355.31
2022-11-04T14:39:44.396Z,99334.59
2022-11-04T14:42:14.439Z,99345.78
2022-11-04T14:44:41.658Z,99349.28
2022-11-04T14:47:27.641Z,99349.34
2022-11-04T14:50:08.825Z,99340.53
2022-11-04T14:52:46.339Z,99298.53
2022-11-04T14:55:22.005Z,99342.00
2022-11-04T14:57:54.736Z,99336.50
2022-11-04T15:00:31.735Z,99305.47
2022-11-04T15:03:10.172Z,99321.84
2022-11-04T15:05:39.997Z,99312.50
2022-11-04T15:08:44.074Z,99322.88
2022-11-04T15:11:17.262Z,99318.44
2022-11-04T15:13:51.047Z,99314.22
2022-11-04T15:16:26.888Z,99303.31
2022-11-04T15:18:57.212Z,99331.13
2022-11-04T15:21:25.477Z,99332.78
2022-11-04T15:23:55.718Z,99310.94
2022-11-04T15:26:30.125Z,99329.38
2022-11-04T15:29:00.474Z,99333.72
2022-11-04T15:31:32.497Z,99342.22
2022-11-04T15:34:02.866Z,99321.72
2022-11-04T15:36:35.053Z,99350.63
2022-11-04T15:39:07.788Z,99324.94
2022-11-04T15:41:57.828Z,99347.91
2022-11-04T15:44:31.255Z,99351.00
2022-11-04T15:47:04.671Z,99353.75
2022-11-04T15:49:35.379Z,99309.25
2022-11-04T15:52:08.690Z,99338.13
2022-11-04T15:54:48.490Z,99329.44
2022-11-04T15:57:40.282Z,99290.19
2022-11-04T16:00:28.524Z,99322.16
2022-11-04T16:02:58.765Z,99317.56
2022-11-04T16:05:27.969Z,99340.63
2022-11-04T16:08:07.561Z,99319.25
2022-11-04T16:10:36.817Z,99329.72
2022-11-04T16:13:16.396Z,99333.00
2022-11-04T16:15:46.497Z,99326.13
2022-11-04T16:18:24.469Z,99333.13
2022-11-04T16:20:54.284Z,99338.41
2022-11-04T16:23:24.936Z,99301.88
2022-11-04T16:26:01.803Z,99320.63
2022-11-04T16:28:31.593Z,99322.72
2022-11-04T16:30:59.861Z,99313.91
2022-11-04T16:33:27.091Z,99295.59
2022-11-04T16:35:54.446Z,99274.97
2022-11-04T16:38:21.707Z,99267.25
2022-11-04T16:40:50.090Z,99305.22
2022-11-04T16:43:22.421Z,99302.00
2022-11-04T16:45:53.722Z,99313.91
2022-11-04T16:48:23.765Z,99313.72
2022-11-04T16:50:51.018Z,99305.13
2022-11-04T16:53:18.204Z,99282.81
2022-11-04T16:55:46.125Z,99280.44
2022-11-04T16:58:18.037Z,99308.19
2022-11-04T17:00:45.502Z,99295.38
2022-11-04T17:03:25.642Z,99288.06
2022-11-04T17:05:56.612Z,99307.84
2022-11-04T17:08:24.803Z,99294.41
2022-11-04T17:10:52.640Z,99284.25
2022-11-04T17:13:19.986Z,99290.19
2022-11-04T17:15:47.875Z,99310.06
2022-11-04T17:18:17.972Z,99304.81
2022-11-04T17:20:49.235Z,99306.34
2022-11-04T17:23:17.390Z,99307.34
2022-11-04T17:25:45.574Z,99317.09
2022-11-04T17:28:14.198Z,99307.56
2022-11-04T17:30:42.873Z,99317.25
2022-11-04T17:33:13.809Z,99302.38
2022-11-04T17:35:48.483Z,99330.19
2022-11-04T17:38:17.224Z,99325.72
2022-11-04T17:41:03.806Z,99321.72
2022-11-04T17:43:50.301Z,99322.75
2022-11-04T17:46:37.798Z,99328.06
2022-11-04T17:49:08.923Z,99312.41
2022-11-04T17:51:36.932Z,99295.66
2022-11-04T17:54:05.739Z,99285.06
2022-11-04T17:56:33.322Z,99289.13
2022-11-04T17:59:01.699Z,99313.66
2022-11-04T18:01:29.129Z,99304.97
2022-11-04T18:03:57.954Z,99290.34
2022-11-04T18:06:26.543Z,99291.22
2022-11-04T18:08:55.360Z,99275.19
2022-11-04T18:11:43.824Z,99283.16
2022-11-04T18:14:16.837Z,99250.78
2022-11-04T18:16:47.242Z,99262.91
2022-11-04T18:19:16.494Z,99268.94
2022-11-04T18:21:44.533Z,99251.84
2022-11-04T18:24:14.897Z,99257.34
2022-11-04T18:26:44.351Z,99264.13
2022-11-04T18:29:11.846Z,99258.13
2022-11-04T18:31:49.092Z,99253.56
2022-11-04T18:34:19.603Z,99227.91
2022-11-04T18:36:48.509Z,99256.91
2022-11-04T18:39:17.650Z,99261.47
2022-11-04T18:41:45.837Z,99255.94
2022-11-04T18:44:21.302Z,99267.03
2022-11-04T18:46:49.567Z,99265.97
2022-11-04T18:49:18.086Z,99262.25
2022-11-04T18:51:45.457Z,99241.72
2022-11-04T18:54:13.431Z,99248.16
2022-11-04T18:56:41.240Z,99248.97
2022-11-04T18:59:10.695Z,99239.50
2022-11-04T19:01:38.463Z,99229.94
2022-11-04T19:04:06.150Z,99251.78
2022-11-04T19:06:36.382Z,99252.47
2022-11-04T19:09:40.168Z,99235.19
2022-11-04T19:12:16.146Z,99235.84
2022-11-04T19:14:43.479Z,99256.72
2022-11-04T19:17:11.141Z,99258.72
2022-11-04T19:19:40.901Z,99261.06
2022-11-04T19:22:09.294Z,99244.59
2022-11-04T19:24:36.731Z,99258.69
2022-11-04T19:27:04.614Z,99253.19
2022-11-04T19:29:32.987Z,99274.25
2022-11-04T19:32:00.930Z,99273.09
2022-11-04T19:34:28.169Z,99254.25
2022-11-04T19:36:55.639Z,99284.53
2022-11-04T19:39:22.825Z,99288.44
2022-11-04T19:42:08.629Z,99288.03
2022-11-04T19:44:35.990Z,99279.38
2022-11-04T19:47:03.301Z,99266.16
2022-11-04T19:49:31.614Z,99272.56
2022-11-04T19:51:59.452Z,99283.56
2022-11-04T19:54:28.228Z,99277.31
2022-11-04T19:56:55.913Z,99264.09
2022-11-04T19:59:23.133Z,99280.41
2022-11-04T20:01:50.697Z,99272.56
2022-11-04T20:04:18.309Z,99240.41
2022-11-04T20:06:45.577Z,99245.91
2022-11-04T20:09:12.951Z,99224.00
2022-11-04T20:12:00.281Z,99238.38
2022-11-04T20:14:28.723Z,99217.84
2022-11-04T20:16:55.976Z,99252.97
2022-11-04T20:19:23.736Z,99252.13
2022-11-04T20:21:51.104Z,99231.06
2022-11-04T20:24:18.700Z,99232.22
2022-11-04T20:26:49.216Z,99230.13
2022-11-04T20:29:17.355Z,99258.25
2022-11-04T20:31:45.545Z,99261.53
2022-11-04T20:34:13.960Z,99332.47
2022-11-04T20:36:41.783Z,99323.38
2022-11-04T20:39:16.044Z,99280.28
2022-11-04T20:41:44.693Z,99342.13
2022-11-04T20:44:13.813Z,99295.00
2022-11-04T20:46:41.899Z,99289.28
2022-11-04T20:49:09.354Z,99322.31
2022-11-04T20:51:42.320Z,99353.94
2022-11-04T20:54:10.864Z,99358.25
2022-11-04T20:56:40.184Z,99267.38
2022-11-04T20:59:09.536Z,99343.25
2022-11-04T21:01:40.166Z,99326.44
2022-11-04T21:04:11.540Z,99345.69
2022-11-04T21:06:39.650Z,99345.28
2022-11-04T21:09:09.239Z,99331.06
2022-11-04T21:11:39.042Z,99332.91
2022-11-04T21:14:11.930Z,99341.59
2022-11-04T21:16:39.292Z,99316.41
2022-11-04T21:19:07.712Z,99328.34
2022-11-04T21:21:35.187Z,99298.91
2022-11-04T21:24:05.653Z,99326.53
2022-11-04T21:26:35.009Z,99341.72
2022-11-04T21:29:08.342Z,99339.88
2022-11-04T21:31:37.040Z,99350.91
2022-11-04T21:34:04.732Z,99337.75
2022-11-04T21:36:32.642Z,99346.25
2022-11-04T21:39:00.274Z,99338.34
2022-11-04T21:41:30.459Z,99344.47
2022-11-04T21:43:59.612Z,99320.00
2022-11-04T21:46:28.525Z,99340.16
2022-11-04T21:48:56.845Z,99326.16
2022-11-04T21:51:25.796Z,99315.47
2022-11-04T21:53:53.112Z,99291.50
2022-11-04T21:56:25.893Z,99328.75
2022-11-04T21:58:53.911Z,99325.56
2022-11-04T22:01:24.699Z,99323.19
2022-11-04T22:03:59.328Z,99319.91
2022-11-04T22:06:34.745Z,99311.13
2022-11-04T22:09:05.166Z,99328.66
2022-11-04T22:11:33.609Z,99327.44
2022-11-04T22:14:04.678Z,99322.34
2022-11-04T22:16:34.354Z,99312.66
2022-11-04T22:19:04.035Z,99327.38
2022-11-04T22:21:32.463Z,99319.75
2022-11-04T22:24:00.710Z,99335.84
2022-11-04T22:26:30.864Z,99337.72
2022-11-04T22:28:59.002Z,99324.06
2022-11-04T22:31:27.661Z,99342.16
2022-11-04T22:33:55.642Z,99344.34
2022-11-04T22:36:23.534Z,99344.53
2022-11-04T22:38:50.924Z,99353.13
2022-11-04T22:41:23.890Z,99351.31
2022-11-04T22:43:51.126Z,99334.06
2022-11-04T22:46:25.553Z,99311.34
2022-11-04T22:48:52.811Z,99311.88
2022-11-04T22:51:20.377Z,99336.81
2022-11-04T22:53:56.731Z,99347.16
2022-11-04T22:56:25.232Z,99316.22
2022-11-04T22:58:54.245Z,99290.50
2022-11-04T23:01:22.478Z,99339.16
2022-11-04T23:03:53.212Z,99330.56
2022-11-04T23:06:20.691Z,99316.78
2022-11-04T23:08:47.960Z,99308.13
2022-11-04T23:11:44.111Z,99336.13
2022-11-04T23:14:35.120Z,99324.91
2022-11-04T23:17:21.562Z,99313.50
2022-11-04T23:19:50.286Z,99354.34
2022-11-04T23:22:35.995Z,99314.72
2022-11-04T23:25:06.565Z,99362.38
2022-11-04T23:27:54.530Z,99368.84
2022-11-04T23:30:22.514Z,99354.28
2022-11-04T23:32:54.323Z,99324.66
2022-11-04T23:35:46.231Z,99343.25
2022-11-04T23:38:13.593Z,99338.81
2022-11-04T23:40:41.205Z,99327.44
2022-11-04T23:43:08.817Z,99363.38
2022-11-04T23:46:05.249Z,99315.47
2022-11-04T23:48:51.029Z,99341.44
2022-11-04T23:51:36.874Z,99342.22
2022-11-04T23:54:30.319Z,99353.06
2022-11-04T23:57:16.490Z,99332.00
